Time;durP1;ratioP1;P1;durP2;ratioP2;P2;SDS_P1;SDS_P2;PMS_P1;PMS_P2;Temp;Humidity;BMP_temperature;BMP_pressure;BME280_temperature;BME280_humidity;BME280_pressure;Samples;Min_cycle;Max_cycle;Signal;HPM_P1;HPM_P2
2022/11/24 00:01:16;;;;;;;3.15;0.98;;;18.00;84.90;;;;;;6181119;23;45273;-70
2022/11/24 00:03:43;;;;;;;4.40;0.85;;;18.10;84.90;;;;;;6181080;23;45268;-71
2022/11/24 00:06:14;;;;;;;2.08;0.85;;;18.00;84.90;;;;;;6182256;23;45230;-70
2022/11/24 00:08:44;;;;;;;3.22;0.90;;;18.10;85.10;;;;;;6182205;23;48462;-71
2022/11/24 00:11:13;;;;;;;2.60;0.80;;;18.10;85.30;;;;;;6179328;22;45308;-71
2022/11/24 00:13:40;;;;;;;2.83;0.80;;;18.00;84.90;;;;;;6181882;23;45216;-71
2022/11/24 00:16:09;;;;;;;4.03;0.77;;;18.10;85.30;;;;;;6181636;23;45292;-70
2022/11/24 00:18:36;;;;;;;1.92;0.60;;;18.00;85.10;;;;;;6183750;23;47456;-70
2022/11/24 00:21:04;;;;;;;2.35;0.73;;;18.10;84.90;;;;;;6180087;23;45569;-70
2022/11/24 00:23:32;;;;;;;2.25;0.88;;;18.10;84.70;;;;;;6180715;23;45517;-70
2022/11/24 00:26:07;;;;;;;2.78;1.00;;;18.00;84.70;;;;;;6181782;23;45232;-72
2022/11/24 00:28:35;;;;;;;4.07;0.70;;;18.00;85.00;;;;;;6181421;23;47710;-72
2022/11/24 00:31:03;;;;;;;2.15;0.80;;;18.00;85.00;;;;;;6181466;23;45355;-70
2022/11/24 00:33:30;;;;;;;3.33;0.93;;;18.00;84.70;;;;;;6181117;23;45381;-71
2022/11/24 00:35:57;;;;;;;5.28;1.05;;;18.00;84.50;;;;;;6182255;23;45377;-71
2022/11/24 00:38:24;;;;;;;2.05;0.80;;;18.00;84.90;;;;;;6181783;23;46225;-71
2022/11/24 00:40:53;;;;;;;2.03;0.88;;;18.00;84.90;;;;;;6181386;23;45259;-70
2022/11/24 00:43:19;;;;;;;2.10;0.90;;;18.00;84.60;;;;;;6181542;23;45321;-70
2022/11/24 00:45:46;;;;;;;4.13;0.93;;;18.00;84.60;;;;;;6181146;23;45350;-70
2022/11/24 00:48:13;;;;;;;2.97;0.90;;;18.00;85.00;;;;;;6181839;23;46727;-70
2022/11/24 00:50:40;;;;;;;3.13;0.75;;;18.00;85.00;;;;;;6180978;23;45252;-71
2022/11/24 00:53:07;;;;;;;3.22;0.80;;;18.00;84.90;;;;;;6181477;23;45252;-70
2022/11/24 00:55:34;;;;;;;6.85;0.93;;;18.00;84.50;;;;;;6181667;23;45368;-70
2022/11/24 00:58:02;;;;;;;3.63;0.95;;;18.10;85.10;;;;;;6180982;23;46242;-70
2022/11/24 01:00:29;;;;;;;4.88;1.00;;;18.10;85.00;;;;;;6179018;23;45268;-70
2022/11/24 01:02:56;;;;;;;4.30;0.77;;;18.00;84.70;;;;;;6181019;23;45338;-70
2022/11/24 01:05:22;;;;;;;5.15;1.33;;;18.10;85.20;;;;;;6181475;23;45627;-70
2022/11/24 01:07:49;;;;;;;4.03;1.08;;;18.10;85.40;;;;;;6181153;23;47408;-70
2022/11/24 01:10:16;;;;;;;4.82;1.00;;;18.00;85.00;;;;;;6179347;22;45164;-70
2022/11/24 01:12:43;;;;;;;2.08;0.85;;;18.10;85.00;;;;;;6182117;23;45398;-70
2022/11/24 01:15:12;;;;;;;2.55;0.95;;;18.10;84.70;;;;;;6182321;23;45571;-70
2022/11/24 01:17:38;;;;;;;5.07;1.00;;;18.00;84.90;;;;;;6182904;23;45538;-70
2022/11/24 01:20:06;;;;;;;1.90;0.93;;;18.00;84.70;;;;;;6182256;23;45272;-70
2022/11/24 01:22:33;;;;;;;2.85;0.90;;;18.10;84.70;;;;;;6182354;23;45282;-70
2022/11/24 01:25:00;;;;;;;2.53;0.90;;;18.10;84.30;;;;;;6182760;23;45255;-70
2022/11/24 01:27:27;;;;;;;3.15;0.70;;;18.00;84.60;;;;;;6181553;23;47309;-70
2022/11/24 01:29:54;;;;;;;3.50;0.90;;;18.00;84.00;;;;;;6182847;23;45217;-71
2022/11/24 01:32:22;;;;;;;3.20;0.82;;;18.00;85.90;;;;;;6181378;23;45281;-70
2022/11/24 01:34:49;;;;;;;2.45;0.85;;;18.00;84.30;;;;;;6183094;23;45252;-70
2022/11/24 01:37:16;;;;;;;3.05;0.95;;;18.00;84.30;;;;;;6182532;23;46403;-71
2022/11/24 01:39:42;;;;;;;1.88;0.90;;;18.00;84.00;;;;;;6181622;23;45327;-70
2022/11/24 01:42:09;;;;;;;3.60;1.13;;;18.00;84.20;;;;;;6182084;23;45255;-70
2022/11/24 01:44:36;;;;;;;2.75;1.00;;;18.00;84.20;;;;;;6182892;23;45548;-71
2022/11/24 01:47:06;;;;;;;1.30;0.80;;;18.00;84.20;;;;;;6182508;23;45291;-70
2022/11/24 01:49:41;;;;;;;5.65;1.20;;;18.00;84.50;;;;;;6182390;23;45208;-71
2022/11/24 01:52:11;;;;;;;1.45;0.70;;;18.00;84.30;;;;;;6182535;23;45430;-70
2022/11/24 01:54:43;;;;;;;2.33;0.82;;;18.00;84.00;;;;;;6183319;23;45285;-70
2022/11/24 01:57:16;;;;;;;4.30;1.02;;;18.00;84.00;;;;;;6181920;23;47326;-70
2022/11/24 01:59:45;;;;;;;2.83;1.13;;;18.10;84.40;;;;;;6180896;23;45260;-70
2022/11/24 02:02:12;;;;;;;3.03;0.85;;;18.00;84.40;;;;;;6181376;23;45389;-70
2022/11/24 02:04:41;;;;;;;2.80;0.95;;;18.10;84.20;;;;;;6182914;23;45376;-70
2022/11/24 02:07:08;;;;;;;3.72;1.23;;;18.00;84.50;;;;;;6181857;23;46749;-70
2022/11/24 02:09:41;;;;;;;4.20;1.00;;;18.00;84.10;;;;;;6182337;23;45372;-71
2022/11/24 02:12:09;;;;;;;2.17;0.60;;;18.10;84.00;;;;;;6180993;23;45198;-70
2022/11/24 02:14:38;;;;;;;3.10;1.08;;;18.10;84.30;;;;;;6182476;23;45674;-70
2022/11/24 02:17:05;;;;;;;4.50;1.27;;;18.10;83.90;;;;;;6182598;23;45332;-72
2022/11/24 02:19:46;;;;;;;5.45;0.73;;;18.00;83.90;;;;;;6182295;23;45442;-70
2022/11/24 02:22:17;;;;;;;3.28;0.98;;;18.10;83.70;;;;;;6181315;23;45197;-70
2022/11/24 02:24:50;;;;;;;5.30;1.30;;;18.10;84.20;;;;;;6181832;23;45160;-71
2022/11/24 02:27:19;;;;;;;6.15;1.10;;;18.00;83.60;;;;;;6182339;23;46312;-70
2022/11/24 02:29:46;;;;;;;3.47;1.35;;;18.00;83.90;;;;;;6182636;23;45232;-70
2022/11/24 02:32:13;;;;;;;2.40;1.00;;;18.00;83.50;;;;;;6181006;23;45403;-70
2022/11/24 02:34:40;;;;;;;3.40;0.90;;;18.00;83.60;;;;;;6182814;23;45236;-70
2022/11/24 02:37:07;;;;;;;3.97;0.98;;;18.00;83.70;;;;;;6181704;23;46718;-70
2022/11/24 02:39:34;;;;;;;4.70;1.08;;;18.00;84.00;;;;;;6183163;23;45443;-69
2022/11/24 02:42:05;;;;;;;3.65;0.77;;;18.00;83.90;;;;;;6181957;23;45209;-70
2022/11/24 02:44:38;;;;;;;2.25;0.68;;;18.00;83.30;;;;;;6182555;23;45501;-69
2022/11/24 02:47:08;;;;;;;2.78;0.93;;;18.00;83.60;;;;;;6182508;23;46909;-71
2022/11/24 02:49:34;;;;;;;3.78;1.15;;;18.00;83.80;;;;;;6181781;23;45517;-72
2022/11/24 02:52:01;;;;;;;3.40;0.80;;;18.00;83.80;;;;;;6182397;23;45381;-70
2022/11/24 02:54:28;;;;;;;4.40;1.23;;;18.00;83.20;;;;;;6181795;23;45267;-69
2022/11/24 02:56:55;;;;;;;2.05;0.82;;;18.00;83.50;;;;;;6182089;23;45313;-71
2022/11/24 02:59:22;;;;;;;6.25;1.17;;;18.10;83.60;;;;;;6181390;23;45279;-70
2022/11/24 03:01:50;;;;;;;3.10;1.00;;;18.00;83.70;;;;;;6181255;23;45448;-70
2022/11/24 03:04:17;;;;;;;4.63;1.35;;;18.00;83.70;;;;;;6181961;23;45515;-70
2022/11/24 03:06:44;;;;;;;2.97;1.10;;;18.00;83.30;;;;;;6181141;23;46545;-70
2022/11/24 03:09:11;;;;;;;3.70;1.00;;;18.10;83.50;;;;;;6182303;22;45372;-70
2022/11/24 03:11:38;;;;;;;2.55;0.85;;;18.00;83.70;;;;;;6179558;23;45293;-70
2022/11/24 03:14:05;;;;;;;2.65;1.05;;;18.00;83.30;;;;;;6181452;23;45235;-69
2022/11/24 03:16:33;;;;;;;5.70;1.17;;;18.10;83.50;;;;;;6181671;23;47087;-69
2022/11/24 03:19:01;;;;;;;3.38;1.17;;;18.00;83.10;;;;;;6181881;23;45364;-70
2022/11/24 03:21:29;;;;;;;3.78;0.63;;;18.10;83.60;;;;;;6181491;23;45429;-69
2022/11/24 03:23:55;;;;;;;3.83;1.35;;;18.00;83.00;;;;;;6180564;23;45309;-70
2022/11/24 03:26:24;;;;;;;3.25;1.10;;;18.00;83.50;;;;;;6181629;23;45425;-70
2022/11/24 03:28:55;;;;;;;2.22;0.82;;;18.00;82.80;;;;;;6182413;23;45343;-69
2022/11/24 03:31:22;;;;;;;5.97;1.10;;;18.00;83.10;;;;;;6181776;23;45231;-69
2022/11/24 03:33:49;;;;;;;5.13;1.10;;;18.00;82.90;;;;;;6181864;23;45486;-69
2022/11/24 03:36:17;;;;;;;3.85;1.27;;;18.00;83.30;;;;;;6181242;23;47357;-69
2022/11/24 03:38:44;;;;;;;4.85;1.35;;;18.00;83.10;;;;;;6182376;23;45263;-69
2022/11/24 03:41:11;;;;;;;6.60;1.02;;;18.00;82.60;;;;;;6181169;23;45268;-69
2022/11/24 03:43:38;;;;;;;4.82;1.00;;;18.00;83.00;;;;;;6181881;23;45182;-70
2022/11/24 03:46:04;;;;;;;3.42;1.08;;;18.00;83.10;;;;;;6181811;23;46284;-69
2022/11/24 03:48:31;;;;;;;3.13;0.85;;;18.00;84.00;;;;;;6181087;23;45261;-69
2022/11/24 03:51:00;;;;;;;1.20;0.65;;;18.00;82.90;;;;;;6181315;23;45248;-69
2022/11/24 03:53:29;;;;;;;2.50;0.85;;;18.00;83.10;;;;;;6180772;23;45429;-70
2022/11/24 03:55:56;;;;;;;3.70;1.10;;;18.00;83.10;;;;;;6180966;23;46565;-70
2022/11/24 03:58:24;;;;;;;4.13;1.23;;;18.10;83.30;;;;;;6178791;23;45308;-70
2022/11/24 04:00:52;;;;;;;4.30;1.23;;;18.00;83.10;;;;;;6181429;23;45260;-70
2022/11/24 04:03:19;;;;;;;3.00;1.08;;;18.10;82.90;;;;;;6181774;23;45498;-69
2022/11/24 04:05:47;;;;;;;4.20;1.20;;;18.00;83.00;;;;;;6181209;23;46260;-69
2022/11/24 04:08:14;;;;;;;2.05;0.80;;;18.10;83.10;;;;;;6182153;23;45289;-69
2022/11/24 04:10:43;;;;;;;3.00;0.88;;;18.10;83.20;;;;;;6179455;22;45312;-70
2022/11/24 04:13:11;;;;;;;3.53;1.25;;;18.10;83.00;;;;;;6181684;23;45398;-69
2022/11/24 04:15:39;;;;;;;3.70;1.33;;;18.00;83.00;;;;;;6181740;23;47347;-69
2022/11/24 04:18:07;;;;;;;3.42;1.00;;;18.10;82.90;;;;;;6181592;23;45245;-69
2022/11/24 04:20:34;;;;;;;3.92;0.80;;;18.10;82.80;;;;;;6181632;23;45269;-69
2022/11/24 04:23:01;;;;;;;4.20;0.93;;;18.00;82.70;;;;;;6181078;23;45409;-69
2022/11/24 04:25:28;;;;;;;3.03;0.75;;;18.00;82.40;;;;;;6181869;23;46396;-70
2022/11/24 04:27:56;;;;;;;3.72;1.20;;;18.00;82.80;;;;;;6181732;23;45213;-69
2022/11/24 04:30:25;;;;;;;3.10;1.00;;;18.00;82.40;;;;;;6181471;23;45336;-71
2022/11/24 04:32:52;;;;;;;5.18;1.13;;;18.00;82.80;;;;;;6181537;23;45237;-69
2022/11/24 04:35:19;;;;;;;4.75;1.25;;;18.00;82.80;;;;;;6181050;23;46598;-69
2022/11/24 04:37:46;;;;;;;3.38;1.25;;;18.00;82.80;;;;;;6182492;23;45282;-69
2022/11/24 04:40:13;;;;;;;3.00;1.10;;;18.00;82.60;;;;;;6180995;23;45280;-70
2022/11/24 04:42:41;;;;;;;4.65;1.00;;;18.00;82.90;;;;;;6181864;23;45349;-69
2022/11/24 04:45:10;;;;;;;2.85;0.90;;;18.00;82.60;;;;;;6181526;23;45486;-70
2022/11/24 04:47:37;;;;;;;3.70;1.10;;;18.00;83.00;;;;;;6181292;23;45169;-70
2022/11/24 04:50:06;;;;;;;4.38;0.88;;;18.00;82.10;;;;;;6183385;23;45357;-69
2022/11/24 04:52:33;;;;;;;4.63;1.00;;;18.00;82.60;;;;;;6182350;23;45331;-69
2022/11/24 04:55:00;;;;;;;2.70;0.80;;;18.00;82.80;;;;;;6183119;23;46956;-70
2022/11/24 04:57:27;;;;;;;5.05;1.30;;;18.00;82.60;;;;;;6182279;23;45227;-69
2022/11/24 04:59:54;;;;;;;3.65;1.08;;;18.00;82.70;;;;;;6181245;23;45232;-70
2022/11/24 05:02:23;;;;;;;3.40;1.33;;;18.10;82.50;;;;;;6182803;23;45383;-69
2022/11/24 05:04:50;;;;;;;3.20;0.82;;;18.10;82.60;;;;;;6182223;23;46335;-70
2022/11/24 05:07:18;;;;;;;3.30;1.02;;;18.10;82.60;;;;;;6182964;23;46167;-69
2022/11/24 05:12:30;;;;;;;3.63;1.10;;;18.10;82.60;;;;;;6181299;23;45292;-69
2022/11/24 05:14:57;;;;;;;3.83;0.93;;;18.10;82.60;;;;;;6182088;23;45381;-69
2022/11/24 05:17:28;;;;;;;2.97;0.98;;;18.00;82.70;;;;;;6182867;23;45264;-69
2022/11/24 05:19:55;;;;;;;4.53;0.95;;;18.00;82.50;;;;;;6183132;23;45603;-69
2022/11/24 05:22:22;;;;;;;4.05;1.15;;;18.00;82.10;;;;;;6182020;23;45402;-69
2022/11/24 05:24:49;;;;;;;5.07;1.30;;;18.00;82.60;;;;;;6182679;23;45428;-70
2022/11/24 05:27:16;;;;;;;2.50;0.90;;;18.00;82.20;;;;;;6182096;23;45193;-69
2022/11/24 05:29:42;;;;;;;4.32;0.98;;;18.00;82.10;;;;;;6183423;23;45209;-69
2022/11/24 05:32:09;;;;;;;2.78;0.90;;;18.00;82.40;;;;;;6182447;23;45245;-71
2022/11/24 05:34:38;;;;;;;5.30;1.33;;;18.00;82.50;;;;;;6181764;23;46954;-69
2022/11/24 05:37:04;;;;;;;3.67;0.80;;;18.00;82.60;;;;;;6182856;23;45478;-70
2022/11/24 05:39:32;;;;;;;4.47;1.23;;;18.00;82.50;;;;;;6182101;23;45359;-69
2022/11/24 05:41:59;;;;;;;3.13;1.05;;;18.00;82.20;;;;;;6183125;23;45402;-69
2022/11/24 05:44:26;;;;;;;7.15;1.20;;;18.00;82.40;;;;;;6181748;23;45368;-71
2022/11/24 05:46:53;;;;;;;4.55;1.17;;;18.00;82.60;;;;;;6182959;23;45430;-71
2022/11/24 05:49:19;;;;;;;5.35;1.02;;;18.00;82.60;;;;;;6182629;23;45228;-70
2022/11/24 05:51:48;;;;;;;3.20;0.95;;;18.00;82.50;;;;;;6182201;23;45196;-69
2022/11/24 05:54:14;;;;;;;6.28;1.30;;;18.00;82.50;;;;;;6180927;23;45427;-71
2022/11/24 05:56:42;;;;;;;3.28;0.98;;;18.00;82.30;;;;;;6181384;23;45402;-70
2022/11/24 05:59:08;;;;;;;4.35;1.00;;;18.10;82.50;;;;;;6180730;23;45303;-69
2022/11/24 06:01:35;;;;;;;3.35;0.93;;;18.10;82.50;;;;;;6180812;23;45542;-69
2022/11/24 06:04:02;;;;;;;3.00;0.90;;;18.00;82.20;;;;;;6181663;23;45402;-69
2022/11/24 06:06:29;;;;;;;3.70;1.25;;;18.10;82.50;;;;;;6182500;23;45242;-69
2022/11/24 06:08:58;;;;;;;3.35;0.90;;;18.00;82.50;;;;;;6181454;22;45456;-69
2022/11/24 06:11:25;;;;;;;2.47;0.95;;;18.00;82.20;;;;;;6181106;23;45523;-69
2022/11/24 06:13:52;;;;;;;4.35;1.00;;;18.10;82.40;;;;;;6180984;23;46563;-71
2022/11/24 06:16:18;;;;;;;4.50;0.88;;;18.00;82.30;;;;;;6182006;23;45309;-69
2022/11/24 06:18:45;;;;;;;2.50;0.70;;;18.00;82.20;;;;;;6182386;23;45299;-69
2022/11/24 06:21:12;;;;;;;3.88;0.93;;;18.00;81.60;;;;;;6181789;23;45459;-70
2022/11/24 06:23:39;;;;;;;2.67;0.80;;;18.00;82.00;;;;;;6179735;23;46592;-69
2022/11/24 06:26:08;;;;;;;3.13;1.10;;;18.00;82.00;;;;;;6180972;23;45364;-69
2022/11/24 06:28:35;;;;;;;3.13;0.82;;;18.00;82.20;;;;;;6182975;23;45283;-69
2022/11/24 06:31:02;;;;;;;1.45;0.77;;;18.00;82.10;;;;;;6180856;23;45373;-69
2022/11/24 06:33:33;;;;;;;2.15;0.82;;;18.00;82.20;;;;;;6181738;23;45419;-69
2022/11/24 06:36:02;;;;;;;3.20;1.10;;;17.90;82.20;;;;;;6182355;23;45225;-70
2022/11/24 06:38:29;;;;;;;2.35;0.80;;;17.90;82.00;;;;;;6182257;23;45424;-69
2022/11/24 06:41:13;;;;;;;2.42;0.93;;;17.90;82.00;;;;;;6181942;23;45370;-69
2022/11/24 06:43:40;;;;;;;3.28;0.70;;;17.90;82.20;;;;;;6181606;23;47199;-70
2022/11/24 06:46:07;;;;;;;4.90;0.95;;;17.90;82.10;;;;;;6181879;23;45197;-69
2022/11/24 06:48:34;;;;;;;2.58;0.80;;;17.90;82.30;;;;;;6182198;23;45372;-69
2022/11/24 06:51:02;;;;;;;1.52;0.70;;;17.90;82.00;;;;;;6182150;23;45369;-69
2022/11/24 06:53:30;;;;;;;2.42;0.80;;;17.90;82.00;;;;;;6181814;23;45383;-69
2022/11/24 06:55:58;;;;;;;2.38;0.52;;;18.00;82.10;;;;;;6181700;23;45280;-69
2022/11/24 06:58:26;;;;;;;3.53;0.75;;;18.00;81.90;;;;;;6181751;23;45320;-69
2022/11/24 07:00:53;;;;;;;1.58;0.82;;;18.00;82.10;;;;;;6181036;23;45527;-69
2022/11/24 07:03:20;;;;;;;2.08;0.63;;;18.00;81.70;;;;;;6182037;23;46481;-69
2022/11/24 07:05:47;;;;;;;2.78;0.80;;;17.90;81.90;;;;;;6181925;23;45353;-70
2022/11/24 07:08:13;;;;;;;3.25;0.80;;;18.00;82.00;;;;;;6182474;23;45277;-70
2022/11/24 07:10:40;;;;;;;1.58;0.60;;;18.00;81.90;;;;;;6179535;22;45312;-69
2022/11/24 07:13:08;;;;;;;1.67;0.50;;;17.90;81.80;;;;;;6180890;23;45437;-71
2022/11/24 07:15:36;;;;;;;2.05;0.70;;;18.00;81.60;;;;;;6181131;23;45277;-69
2022/11/24 07:18:03;;;;;;;3.00;0.88;;;17.90;81.10;;;;;;6181701;23;45258;-69
2022/11/24 07:20:30;;;;;;;1.73;0.50;;;17.90;82.10;;;;;;6181212;23;45431;-69
2022/11/24 07:22:57;;;;;;;1.25;0.50;;;17.90;81.70;;;;;;6181483;23;47353;-69
2022/11/24 07:25:24;;;;;;;3.00;0.75;;;17.90;81.80;;;;;;6181964;23;45499;-69
2022/11/24 07:27:56;;;;;;;1.98;0.35;;;17.90;81.60;;;;;;6182884;23;45213;-69
2022/11/24 07:30:23;;;;;;;2.17;0.82;;;17.90;81.70;;;;;;6181948;23;45476;-69
2022/11/24 07:32:51;;;;;;;2.95;0.73;;;17.90;81.40;;;;;;6181459;23;47382;-70
2022/11/24 07:35:18;;;;;;;2.13;0.80;;;17.90;81.10;;;;;;6182051;23;46085;-69
2022/11/24 07:37:45;;;;;;;2.30;0.68;;;17.90;81.10;;;;;;6182055;23;45420;-69
2022/11/24 07:40:13;;;;;;;1.88;0.63;;;17.90;81.20;;;;;;6182227;23;45384;-69
2022/11/24 07:42:40;;;;;;;2.03;0.43;;;17.90;81.30;;;;;;6180877;23;47083;-71
2022/11/24 07:45:08;;;;;;;0.60;0.50;;;17.90;81.50;;;;;;6180541;23;45240;-69
2022/11/24 07:47:39;;;;;;;3.85;0.65;;;17.90;81.60;;;;;;6182301;23;45392;-69
2022/11/24 07:50:09;;;;;;;1.60;0.60;;;17.90;81.50;;;;;;6182091;23;45272;-69
2022/11/24 07:52:36;;;;;;;3.15;0.50;;;17.90;81.30;;;;;;6180784;23;46231;-70
2022/11/24 07:55:04;;;;;;;1.05;0.40;;;17.90;81.40;;;;;;6177877;23;45345;-70
2022/11/24 07:57:31;;;;;;;1.17;0.38;;;17.90;81.40;;;;;;6180750;23;45444;-69
2022/11/24 07:59:58;;;;;;;1.88;0.70;;;17.90;81.50;;;;;;6184027;23;45360;-69
2022/11/24 08:02:25;;;;;;;1.83;0.50;;;17.90;81.30;;;;;;6181188;23;45233;-70
2022/11/24 08:04:51;;;;;;;1.77;0.35;;;17.90;81.20;;;;;;6180293;23;45290;-69
2022/11/24 08:07:20;;;;;;;0.95;0.50;;;17.90;80.80;;;;;;6180226;23;45415;-70
2022/11/24 08:09:49;;;;;;;1.23;0.40;;;17.90;81.50;;;;;;6181936;23;45165;-70
2022/11/24 08:12:20;;;;;;;1.08;0.30;;;17.90;81.20;;;;;;6180630;23;47372;-69
2022/11/24 08:14:47;;;;;;;1.50;0.50;;;17.90;80.80;;;;;;6180558;23;45694;-70
2022/11/24 08:17:14;;;;;;;1.25;0.60;;;17.90;81.00;;;;;;6181860;23;45274;-70
2022/11/24 08:19:41;;;;;;;3.25;0.73;;;17.90;81.00;;;;;;6180638;23;45441;-69
2022/11/24 08:22:08;;;;;;;2.53;0.52;;;17.90;81.10;;;;;;6180227;23;47401;-69
2022/11/24 08:24:36;;;;;;;4.63;0.80;;;17.90;81.20;;;;;;6179764;23;45318;-68
2022/11/24 08:27:03;;;;;;;3.60;0.73;;;17.90;81.70;;;;;;6181266;23;45207;-69
2022/11/24 08:29:30;;;;;;;3.85;0.60;;;18.00;83.10;;;;;;6181645;23;45674;-69
2022/11/24 08:31:57;;;;;;;5.28;0.77;;;18.00;83.30;;;;;;6181330;23;47402;-67
2022/11/24 08:34:25;;;;;;;6.90;1.42;;;18.00;82.00;;;;;;6181159;23;45412;-68
2022/11/24 08:36:52;;;;;;;4.28;0.80;;;18.00;81.90;;;;;;6180503;23;45332;-67
2022/11/24 08:39:19;;;;;;;4.85;1.65;;;18.00;80.90;;;;;;6181066;23;45376;-69
2022/11/24 08:41:47;;;;;;;6.80;1.10;;;18.00;80.50;;;;;;6181210;23;46539;-67
2022/11/24 08:44:17;;;;;;;5.63;0.88;;;18.00;80.60;;;;;;6180878;23;45307;-68
2022/11/24 08:46:44;;;;;;;6.57;0.68;;;18.00;80.80;;;;;;6181374;23;45253;-68
2022/11/24 08:49:13;;;;;;;2.97;0.50;;;18.00;80.40;;;;;;6181091;23;45531;-68
2022/11/24 08:51:39;;;;;;;1.80;0.50;;;18.00;80.50;;;;;;6180439;23;45367;-68
2022/11/24 08:54:07;;;;;;;2.58;0.60;;;18.00;81.70;;;;;;6180317;23;45334;-68
2022/11/24 08:56:34;;;;;;;1.75;0.55;;;18.00;80.70;;;;;;6181490;23;45187;-68
2022/11/24 08:59:03;;;;;;;4.32;0.73;;;18.00;81.00;;;;;;6180136;23;45523;-68
2022/11/24 09:01:30;;;;;;;3.15;0.65;;;18.00;81.40;;;;;;6179212;23;46263;-68
2022/11/24 09:03:56;;;;;;;3.05;0.80;;;18.10;81.40;;;;;;6180200;23;45448;-69
2022/11/24 09:06:25;;;;;;;2.65;0.65;;;18.10;80.40;;;;;;6180745;23;45311;-68
2022/11/24 09:08:54;;;;;;;5.55;0.95;;;18.10;80.90;;;;;;6181977;23;45549;-68
2022/11/24 09:11:21;;;;;;;1.83;0.75;;;18.20;79.70;;;;;;6181446;23;45308;-69
2022/11/24 09:13:48;;;;;;;2.08;0.90;;;18.20;79.80;;;;;;6180017;23;45378;-67
2022/11/24 09:16:18;;;;;;;3.90;0.93;;;18.20;79.90;;;;;;6182148;23;45261;-67
2022/11/24 09:18:46;;;;;;;3.30;0.82;;;18.20;79.60;;;;;;6179653;23;45483;-68
2022/11/24 09:21:15;;;;;;;2.92;0.77;;;18.20;79.80;;;;;;6180607;23;46554;-68
2022/11/24 09:23:42;;;;;;;2.22;0.75;;;18.20;80.80;;;;;;6181106;23;45378;-67
2022/11/24 09:26:15;;;;;;;1.85;0.80;;;18.20;79.70;;;;;;6180731;23;45269;-67
2022/11/24 09:28:42;;;;;;;3.00;0.93;;;18.30;79.70;;;;;;6181808;23;45338;-67
2022/11/24 09:31:12;;;;;;;2.53;0.77;;;18.30;80.20;;;;;;6180507;23;48016;-68
2022/11/24 09:33:41;;;;;;;4.47;0.70;;;18.30;80.00;;;;;;6181873;23;45196;-68
2022/11/24 09:36:09;;;;;;;2.72;0.75;;;18.30;80.00;;;;;;6184076;23;45367;-68
2022/11/24 09:38:36;;;;;;;2.95;0.63;;;18.30;80.30;;;;;;6183772;23;45319;-67
2022/11/24 09:41:36;;;;;;;2.13;0.70;;;18.30;79.60;;;;;;6183450;23;47234;-68
2022/11/24 09:44:09;;;;;;;2.03;0.57;;;18.30;80.00;;;;;;6136553;23;45347;-69
2022/11/24 09:46:46;;;;;;;2.60;0.60;;;18.30;80.30;;;;;;6183933;23;45455;-68
2022/11/24 09:49:21;;;;;;;1.52;0.57;;;18.30;79.50;;;;;;6183292;23;45312;-68
2022/11/24 09:51:52;;;;;;;2.00;0.70;;;18.40;79.70;;;;;;6183058;23;46580;-68
2022/11/24 09:54:22;;;;;;;0.98;0.60;;;18.40;80.00;;;;;;6181585;23;45309;-68
2022/11/24 09:56:50;;;;;;;1.52;0.50;;;18.40;79.40;;;;;;6182763;23;45284;-68
2022/11/24 09:59:19;;;;;;;2.47;0.60;;;18.40;79.70;;;;;;6182951;23;45526;-68
2022/11/24 10:01:47;;;;;;;1.50;0.70;;;18.40;80.50;;;;;;6181770;23;47312;-68
2022/11/24 10:04:19;;;;;;;1.67;0.60;;;18.40;79.30;;;;;;6182089;23;45216;-68
2022/11/24 10:06:51;;;;;;;1.13;0.50;;;18.50;79.80;;;;;;6183255;23;45225;-68
2022/11/24 10:09:36;;;;;;;1.88;0.68;;;18.50;79.80;;;;;;6183584;23;45204;-69
2022/11/24 10:12:13;;;;;;;1.52;0.70;;;18.50;79.50;;;;;;6181827;23;45284;-68
2022/11/24 10:15:10;;;;;;;2.00;0.80;;;18.40;79.80;;;;;;6179929;23;45321;-70
2022/11/24 10:17:50;;;;;;;7.57;1.38;;;18.40;79.90;;;;;;6182524;23;45426;-71
2022/11/24 10:20:28;;;;;;;8.75;1.23;;;18.40;81.90;;;;;;6180480;23;45276;-69
2022/11/24 10:23:07;;;;;;;5.82;0.80;;;18.40;81.10;;;;;;6182085;23;46428;-70
2022/11/24 10:25:42;;;;;;;2.72;0.70;;;18.40;80.50;;;;;;6181504;23;45414;-70
2022/11/24 10:28:13;;;;;;;1.40;0.70;;;18.30;80.20;;;;;;6182575;23;45429;-70
2022/11/24 10:30:40;;;;;;;5.53;0.90;;;18.30;80.40;;;;;;6181352;23;45264;-69
2022/11/24 10:33:16;;;;;;;5.75;0.90;;;18.30;80.30;;;;;;6182710;23;45391;-69
2022/11/24 10:35:49;;;;;;;3.42;0.68;;;18.30;81.50;;;;;;6185457;23;45136;-69
2022/11/24 10:38:29;;;;;;;2.55;0.70;;;18.30;80.70;;;;;;6183391;23;45236;-70
2022/11/24 10:41:01;;;;;;;4.95;0.82;;;18.30;81.00;;;;;;6181935;23;45608;-69
2022/11/24 10:43:29;;;;;;;2.75;0.70;;;18.30;81.20;;;;;;6181212;23;48717;-70
2022/11/24 10:46:05;;;;;;;4.35;0.90;;;18.30;80.90;;;;;;6181284;23;45339;-69
2022/11/24 10:48:40;;;;;;;4.60;0.93;;;18.30;81.10;;;;;;6183932;23;45301;-70
2022/11/24 10:51:38;;;;;;;2.00;0.60;;;18.30;81.40;;;;;;6183497;23;45360;-70
2022/11/24 10:54:12;;;;;;;2.75;0.93;;;18.30;80.90;;;;;;6181773;23;47267;-70
2022/11/24 10:56:40;;;;;;;1.38;0.70;;;18.30;80.50;;;;;;6181638;23;45412;-70
2022/11/24 10:59:30;;;;;;;1.33;0.63;;;18.30;80.90;;;;;;6182237;23;45157;-70
2022/11/24 11:01:58;;;;;;;3.50;0.80;;;18.30;81.10;;;;;;6181438;23;45594;-70
2022/11/24 11:04:27;;;;;;;3.05;0.85;;;18.30;80.80;;;;;;6181286;23;46606;-70
2022/11/24 11:07:09;;;;;;;2.85;0.70;;;18.30;80.70;;;;;;6181309;23;45268;-71
2022/11/24 11:09:36;;;;;;;4.00;0.85;;;18.30;80.80;;;;;;6181966;23;45335;-69
2022/11/24 11:12:11;;;;;;;1.77;0.47;;;18.30;80.50;;;;;;6182438;23;45353;-69
2022/11/24 11:14:37;;;;;;;1.50;0.65;;;18.20;80.80;;;;;;6180937;23;45327;-69
2022/11/24 11:17:29;;;;;;;2.92;0.77;;;18.30;81.20;;;;;;6181864;23;45344;-70
2022/11/24 11:20:02;;;;;;;3.00;0.40;;;18.20;81.00;;;;;;6179543;23;45258;-70
2022/11/24 11:22:32;;;;;;;0.98;0.60;;;18.30;81.00;;;;;;6181623;23;45348;-70
2022/11/24 11:25:18;;;;;;;2.17;0.60;;;18.20;80.60;;;;;;6181222;23;46355;-69
2022/11/24 11:27:45;;;;;;;1.63;0.55;;;18.30;80.70;;;;;;6181937;23;45312;-70
2022/11/24 11:30:23;;;;;;;1.33;0.70;;;18.20;80.70;;;;;;6182068;23;45426;-70
2022/11/24 11:32:54;;;;;;;1.92;0.60;;;18.30;81.00;;;;;;6181714;23;45205;-70
2022/11/24 11:35:23;;;;;;;2.28;0.50;;;18.20;80.80;;;;;;6181013;23;47506;-70
2022/11/24 11:37:52;;;;;;;1.50;0.68;;;18.30;80.80;;;;;;6181189;23;45307;-70
2022/11/24 11:40:24;;;;;;;3.38;0.73;;;18.30;80.90;;;;;;6181147;23;45276;-69
2022/11/24 11:42:56;;;;;;;1.90;0.52;;;18.30;80.80;;;;;;6181030;23;45261;-70
2022/11/24 11:45:27;;;;;;;1.40;0.43;;;18.30;80.60;;;;;;6180857;23;48210;-70
2022/11/24 11:48:02;;;;;;;3.85;0.80;;;18.30;80.50;;;;;;6182369;23;45212;-69
2022/11/24 11:50:39;;;;;;;1.90;0.65;;;18.30;80.10;;;;;;6180936;23;45491;-69
2022/11/24 11:53:20;;;;;;;4.13;0.82;;;18.40;80.10;;;;;;6180952;23;45486;-70
2022/11/24 11:55:58;;;;;;;1.30;0.57;;;18.30;80.10;;;;;;6181065;23;45448;-69
2022/11/24 11:58:46;;;;;;;1.63;0.65;;;18.40;80.00;;;;;;6181126;23;45373;-70
2022/11/24 12:01:31;;;;;;;1.52;0.82;;;18.40;79.90;;;;;;6181564;23;45433;-70
2022/11/24 12:04:12;;;;;;;1.90;0.50;;;18.40;80.30;;;;;;6180806;23;45382;-70
2022/11/24 12:06:57;;;;;;;1.48;0.60;;;18.40;79.90;;;;;;6181290;23;45634;-70
2022/11/24 12:09:35;;;;;;;2.55;0.55;;;18.40;79.50;;;;;;6180730;23;45253;-70
2022/11/24 12:12:16;;;;;;;1.98;0.60;;;18.40;80.00;;;;;;6181847;23;45403;-69
2022/11/24 12:14:56;;;;;;;3.50;0.77;;;18.30;80.00;;;;;;6180797;23;45479;-69
2022/11/24 12:17:34;;;;;;;3.00;0.85;;;18.30;80.10;;;;;;6181996;23;45315;-70
2022/11/24 12:20:23;;;;;;;2.60;0.70;;;18.30;80.40;;;;;;6181683;23;45279;-69
2022/11/24 12:22:59;;;;;;;1.95;0.63;;;18.30;80.50;;;;;;6179278;23;45457;-69
2022/11/24 12:25:31;;;;;;;1.00;0.40;;;18.30;80.90;;;;;;6179187;23;45503;-69
2022/11/24 12:28:14;;;;;;;1.92;0.40;;;18.30;80.80;;;;;;6180964;23;45264;-70
2022/11/24 12:30:45;;;;;;;2.25;0.65;;;18.30;80.70;;;;;;6180217;23;45182;-69
2022/11/24 12:33:40;;;;;;;2.55;0.63;;;18.30;81.00;;;;;;6181298;23;45362;-69
2022/11/24 12:36:16;;;;;;;1.88;0.50;;;18.30;80.80;;;;;;6182138;23;45260;-70
2022/11/24 12:38:52;;;;;;;1.10;0.40;;;18.30;81.00;;;;;;6179705;23;46256;-70
2022/11/24 12:41:35;;;;;;;2.58;0.50;;;18.30;81.00;;;;;;6181736;23;45271;-70
2022/11/24 12:44:04;;;;;;;2.35;0.70;;;18.30;80.60;;;;;;6181097;23;45383;-70
2022/11/24 12:46:42;;;;;;;1.33;0.40;;;18.30;80.70;;;;;;6181971;23;45173;-70
2022/11/24 12:49:22;;;;;;;1.42;0.65;;;18.40;80.90;;;;;;6182222;23;47570;-69
2022/11/24 12:51:54;;;;;;;1.45;0.73;;;18.40;80.80;;;;;;6181557;23;45715;-69
2022/11/24 12:54:22;;;;;;;2.53;0.70;;;18.40;81.30;;;;;;6182096;23;45447;-70
2022/11/24 12:56:58;;;;;;;1.30;0.45;;;18.40;81.50;;;;;;6179620;23;45320;-69
2022/11/24 12:59:33;;;;;;;3.00;0.50;;;18.30;81.70;;;;;;6182323;23;47670;-70
2022/11/24 13:02:12;;;;;;;1.48;0.55;;;18.30;81.80;;;;;;6181952;23;45380;-70
2022/11/24 13:04:46;;;;;;;1.45;0.50;;;18.30;82.00;;;;;;6181297;23;45435;-70